Mijn Webcam Meer informatie Mijn Webcam


webcam facing north-east Meer informatie webcam facing north-east


Regen radar Meer informatie rain snow radar


Bezoek onze andere website:

Template documentation
and downloads

And another site


CBI



METAR rapporten vliegvelden

   
EHGG - Groningen/Eelde
Gewijzigd: 18-12-2017 22:55
Mist, Bewolking  
Mist, Bewolking  
   Wind: ZW 2,6 m/s
Wind: ZW 2,6 m/s
Temperatuur: 2°C
Voelt als: -1°C
Dauwpunt: 2°C
Vochtigheid: 100%
Barometer: 1029 hPa
Bewolking: Bewolking
Zicht: 1 km
Bewolking: Bewolking
EHGG 182155Z AUTO 23005KT 0650 R23/0900N FG OVC000 02/02 Q1029 TEMPO 1200 BKN002
EHMA - Schiermonnikoog
Gewijzigd: 18-12-2017 22:55
Gedeeltelijk bewolkt  
Gedeeltelijk bewolkt  
   Wind: WNW 5,7 m/s
Wind: WNW 5,7 m/s
Temperatuur: 7°C
Voelt als: 3°C
Dauwpunt: 5°C
Vochtigheid: 87%
Barometer: 1029 hPa
Bewolking: Gedeeltelijk bewolkt
Zicht: More then 10 km
Bewolking: Gedeeltelijk bewolkt
EHMA 182155Z AUTO 30011KT 9999 NSC 07/05 Q1029 W///H///
EHMG - Terschelling
Gewijzigd: 18-12-2017 22:55
Helder  
Helder  
   Wind: WNW 6,2 m/s
Wind: WNW 6,2 m/s
Temperatuur: 8°C
Voelt als: 4°C
Dauwpunt: 6°C
Vochtigheid: 87%
Barometer: 1029 hPa
Bewolking: Helder
Zicht: More then 10 km
Bewolking: Helder
EHMG 182155Z AUTO 30012KT 9999 NCD 08/06 Q1029 W///H///
EHVL - Vlieland
Gewijzigd: 18-12-2017 22:55
Nevel, Licht bewolkt  
Nevel, Licht bewolkt  
   Wind: WNW 3,6 m/s
Wind: WNW 3,6 m/s
Temperatuur: 6°C
Voelt als: 3°C
Dauwpunt: 6°C
Vochtigheid: 100%
Barometer: 1030 hPa
Bewolking: Licht bewolkt
Zicht: 6 km
Bewolking: Licht bewolkt 12801,6 m
EHVL 182155Z AUTO 30007KT 6000 BR FEW420 06/06 Q1030 WHT
ETWM - Meppen, Germany
Gewijzigd: 18-12-2017 22:20
  
  
   Wind: Westen 1 m/s
Wind: Westen 1 m/s
Temperatuur: 2°C
Dauwpunt: 1°C
Vochtigheid: 93%
Barometer: 1029 hPa
Zicht: 4 km
ETWM 182120Z AUTO 26002KT 4000 // ////// 02/01 Q1029 ///
 

Script ontwikkeld door  Saratoga-weather.org Aangepast voor de template door  Weerstation Leuven

U vindt ons ook hier:

Het Weer Aktueel

UK Metoffice

European Weather Network

WeatherCloud

Weather Underground

Benelux Weer Netwerk

AWEKAS

WeatherlinkIP

HAMweather, WeatherForYou, PWS Weather

Apparatuur in gebruik:

Weerstation
Davis VP2 Plus

Weerprogramma
Cumulus

Weercomputer
ASUS Eee Box B202

Webleverancier
Antagonist

Davis VP2 Plus

Cumulus

ASUS Eee Box B202

Antagonist